createdAt,value
2022-10-10T00:05:03.513Z,9.52
2022-10-10T00:10:29.145Z,9.25
2022-10-10T00:15:53.759Z,10.13
2022-10-10T00:21:18.297Z,9.07
2022-10-10T00:26:44.504Z,8.63
2022-10-10T00:32:08.968Z,9.13
2022-10-10T00:37:33.596Z,9.27
2022-10-10T00:43:01.449Z,8.45
2022-10-10T00:48:29.996Z,7.32
2022-10-10T00:53:59.299Z,7.10
2022-10-10T00:59:27.430Z,6.43
2022-10-10T01:04:52.136Z,6.10
2022-10-10T01:10:20.855Z,5.80
2022-10-10T01:15:53.345Z,5.33
2022-10-10T01:21:29.387Z,5.75
2022-10-10T01:27:17.728Z,4.50
2022-10-10T01:32:48.826Z,5.25
2022-10-10T01:38:34.852Z,4.57
2022-10-10T01:44:00.425Z,4.68
2022-10-10T01:49:31.819Z,4.70
2022-10-10T01:55:11.680Z,4.43
2022-10-10T02:00:44.266Z,4.38
2022-10-10T02:06:15.435Z,4.57
2022-10-10T02:11:41.452Z,4.30
2022-10-10T02:17:09.864Z,3.70
2022-10-10T02:22:39.380Z,5.20
2022-10-10T02:28:11.115Z,4.75
2022-10-10T02:33:42.700Z,4.68
2022-10-10T02:39:13.301Z,5.18
2022-10-10T02:50:03.050Z,5.10
2022-10-10T02:55:29.290Z,5.32
2022-10-10T03:00:54.644Z,4.57
2022-10-10T03:06:19.817Z,4.90
2022-10-10T03:11:48.558Z,4.60
2022-10-10T03:17:14.798Z,5.13
2022-10-10T03:22:39.900Z,5.60
2022-10-10T03:28:06.014Z,4.97
2022-10-10T03:33:30.436Z,4.50
2022-10-10T03:38:55.218Z,5.78
2022-10-10T03:44:21.460Z,5.70
2022-10-10T03:49:45.477Z,5.05
2022-10-10T03:55:10.115Z,4.85
2022-10-10T04:00:36.257Z,5.07
2022-10-10T04:06:01.494Z,5.28
2022-10-10T04:11:25.939Z,4.10
2022-10-10T04:16:51.527Z,4.95
2022-10-10T04:27:44.796Z,4.00
2022-10-10T04:33:10.581Z,5.15
2022-10-10T04:38:34.572Z,4.65
2022-10-10T04:43:59.446Z,5.47
2022-10-10T04:49:25.535Z,4.80
2022-10-10T04:54:49.496Z,4.45
2022-10-10T05:00:14.796Z,4.22
2022-10-10T05:05:41.965Z,3.40
2022-10-10T05:11:07.825Z,4.72
2022-10-10T05:16:32.454Z,3.97
2022-10-10T05:21:58.742Z,3.95
2022-10-10T05:27:23.660Z,4.38
2022-10-10T05:32:49.177Z,5.80
2022-10-10T05:38:16.885Z,5.75
2022-10-10T05:43:42.904Z,4.60
2022-10-10T05:49:07.848Z,3.78
2022-10-10T05:54:34.345Z,3.58
2022-10-10T05:59:58.956Z,3.70
2022-10-10T06:08:49.517Z,3.55
2022-10-10T06:14:18.330Z,3.25
2022-10-10T06:19:44.043Z,3.10
2022-10-10T06:25:28.922Z,4.32
2022-10-10T06:30:55.531Z,3.22
2022-10-10T06:36:21.259Z,3.53
2022-10-10T06:41:50.070Z,3.50
2022-10-10T06:47:17.089Z,4.30
2022-10-10T06:52:42.585Z,4.43
2022-10-10T06:58:08.908Z,4.00
2022-10-10T07:03:34.037Z,3.03
2022-10-10T07:08:59.520Z,3.10
2022-10-10T07:14:25.816Z,2.92
2022-10-10T07:19:51.781Z,2.97
2022-10-10T07:25:15.893Z,3.55
2022-10-10T07:30:43.754Z,2.67
2022-10-10T07:36:08.256Z,3.53
2022-10-10T07:41:32.377Z,3.30
2022-10-10T07:46:58.398Z,5.80
2022-10-10T07:52:22.653Z,3.60
2022-10-10T07:57:53.099Z,2.90
2022-10-10T08:03:18.937Z,3.15
2022-10-10T08:08:50.821Z,3.28
2022-10-10T08:14:15.924Z,2.63
2022-10-10T08:19:41.912Z,3.53
2022-10-10T08:25:08.174Z,2.65
2022-10-10T08:30:32.490Z,2.67
2022-10-10T08:36:01.278Z,3.40
2022-10-10T08:41:35.025Z,3.25
2022-10-10T08:47:03.184Z,2.78
2022-10-10T08:52:36.188Z,3.25
2022-10-10T08:58:06.002Z,2.67
2022-10-10T09:03:37.666Z,2.50
2022-10-10T09:09:14.229Z,2.35
2022-10-10T09:14:44.742Z,3.17
2022-10-10T09:20:24.138Z,2.47
2022-10-10T09:31:20.799Z,2.42
2022-10-10T09:42:24.200Z,2.17
2022-10-10T09:47:55.370Z,2.95
2022-10-10T09:53:27.140Z,2.42
2022-10-10T09:59:01.499Z,2.40
2022-10-10T10:04:35.790Z,1.98
2022-10-10T10:10:11.967Z,2.08
2022-10-10T10:15:39.275Z,3.20
2022-10-10T10:21:20.427Z,2.65
2022-10-10T10:26:48.555Z,2.17
2022-10-10T10:32:32.020Z,3.00
2022-10-10T10:38:18.468Z,2.20
2022-10-10T10:44:24.681Z,2.63
2022-10-10T10:50:08.512Z,9.43
2022-10-10T10:55:44.121Z,2.60
2022-10-10T11:01:28.797Z,2.35
2022-10-10T11:07:20.685Z,2.03
2022-10-10T11:13:02.225Z,3.45
2022-10-10T11:18:37.366Z,4.72
2022-10-10T11:24:08.233Z,3.72
2022-10-10T11:29:48.484Z,3.53
2022-10-10T11:35:28.561Z,4.30
2022-10-10T11:41:04.917Z,2.85
2022-10-10T11:46:39.250Z,3.28
2022-10-10T11:52:34.004Z,2.60
2022-10-10T11:58:29.866Z,2.35
2022-10-10T12:03:53.958Z,1.73
2022-10-10T12:09:27.173Z,2.08
2022-10-10T12:14:55.779Z,2.50
2022-10-10T12:20:38.537Z,2.60
2022-10-10T12:26:03.502Z,3.03
2022-10-10T12:31:34.739Z,2.00
2022-10-10T12:37:13.091Z,3.22
2022-10-10T12:42:41.149Z,3.28
2022-10-10T12:48:19.747Z,2.38
2022-10-10T12:53:57.574Z,2.35
2022-10-10T12:59:26.611Z,3.60
2022-10-10T13:04:57.421Z,2.28
2022-10-10T13:10:24.847Z,2.20
2022-10-10T13:15:53.829Z,1.77
2022-10-10T13:21:23.916Z,1.80
2022-10-10T13:26:56.208Z,2.13
2022-10-10T13:32:23.829Z,2.55
2022-10-10T13:37:56.309Z,2.40
2022-10-10T13:43:32.348Z,2.95
2022-10-10T13:49:28.033Z,7.70
2022-10-10T13:55:27.003Z,2.83
2022-10-10T14:01:07.493Z,5.55
2022-10-10T14:07:34.376Z,2.83
2022-10-10T14:19:18.849Z,2.13
2022-10-10T14:24:44.822Z,2.22
2022-10-10T14:30:15.741Z,3.70
2022-10-10T14:35:41.832Z,2.90
2022-10-10T14:41:07.431Z,1.85
2022-10-10T14:46:33.282Z,1.63
2022-10-10T14:51:58.128Z,2.67
2022-10-10T14:57:27.328Z,1.90
2022-10-10T15:02:56.360Z,3.45
2022-10-10T15:08:23.288Z,2.20
2022-10-10T15:13:53.015Z,2.58
2022-10-10T15:19:24.401Z,1.88
2022-10-10T15:24:53.423Z,2.30
2022-10-10T15:30:19.888Z,2.00
2022-10-10T15:36:07.881Z,2.00
2022-10-10T15:41:30.541Z,2.40
2022-10-10T15:46:56.588Z,2.58
2022-10-10T15:52:26.387Z,2.10
2022-10-10T15:57:53.308Z,2.92
2022-10-10T16:03:17.962Z,2.95
2022-10-10T16:08:44.475Z,2.05
2022-10-10T16:14:08.542Z,2.63
2022-10-10T16:19:34.222Z,2.35
2022-10-10T16:25:22.454Z,2.38
2022-10-10T16:30:51.524Z,2.15
2022-10-10T16:36:19.337Z,2.03
2022-10-10T16:41:49.535Z,1.77
2022-10-10T16:47:15.643Z,2.95
2022-10-10T16:52:46.680Z,2.42
2022-10-10T16:58:16.908Z,2.22
2022-10-10T17:03:44.212Z,1.67
2022-10-10T17:09:18.829Z,1.92
2022-10-10T17:14:49.135Z,1.70
2022-10-10T17:20:18.356Z,1.77
2022-10-10T17:25:46.394Z,2.22
2022-10-10T17:31:16.173Z,2.75
2022-10-10T17:42:05.652Z,3.08
2022-10-10T17:47:32.427Z,3.85
2022-10-10T17:52:58.060Z,3.80
2022-10-10T17:58:22.659Z,3.15
2022-10-10T18:03:52.580Z,2.47
2022-10-10T18:09:19.338Z,2.22
2022-10-10T18:14:47.729Z,2.42
2022-10-10T18:20:15.919Z,2.67
2022-10-10T18:25:42.399Z,3.22
2022-10-10T18:31:13.266Z,4.90
2022-10-10T18:36:42.368Z,2.42
2022-10-10T18:42:07.695Z,2.33
2022-10-10T18:47:32.047Z,1.60
2022-10-10T18:53:01.990Z,1.67
2022-10-10T18:58:31.799Z,1.70
2022-10-10T19:03:57.545Z,1.50
2022-10-10T19:09:28.832Z,1.90
2022-10-10T19:14:55.116Z,2.20
2022-10-10T19:20:25.845Z,1.88
2022-10-10T19:25:55.664Z,1.70
2022-10-10T19:31:22.500Z,1.80
2022-10-10T19:36:48.067Z,1.88
2022-10-10T19:42:14.013Z,1.33
2022-10-10T19:47:38.355Z,1.67
2022-10-10T19:53:05.068Z,1.45
2022-10-10T19:58:32.092Z,2.30
2022-10-10T20:03:58.126Z,1.63
2022-10-10T20:09:21.989Z,1.83
2022-10-10T20:14:47.593Z,1.92
2022-10-10T20:20:12.019Z,1.90
2022-10-10T20:25:39.624Z,2.20
2022-10-10T20:31:05.214Z,1.92
2022-10-10T20:36:31.217Z,1.50
2022-10-10T20:41:55.151Z,1.45
2022-10-10T20:47:20.849Z,1.55
2022-10-10T20:52:45.493Z,1.45
2022-10-10T20:58:09.644Z,1.42
2022-10-10T21:03:35.235Z,1.98
2022-10-10T21:09:01.064Z,1.63
2022-10-10T21:14:27.002Z,1.33
2022-10-10T21:19:53.494Z,1.30
2022-10-10T21:25:17.955Z,1.60
2022-10-10T21:30:48.748Z,2.63
2022-10-10T21:36:15.214Z,1.77
2022-10-10T21:41:41.096Z,1.63
2022-10-10T21:47:05.039Z,1.63
2022-10-10T21:52:30.817Z,1.67
2022-10-10T21:57:55.002Z,1.63
2022-10-10T22:03:19.043Z,1.50
2022-10-10T22:08:45.727Z,1.63
2022-10-10T22:14:10.466Z,1.63
2022-10-10T22:19:34.848Z,1.67
2022-10-10T22:25:00.410Z,1.45
2022-10-10T22:30:24.573Z,1.70
2022-10-10T22:35:49.115Z,2.15
2022-10-10T22:41:17.573Z,1.83
2022-10-10T22:46:41.421Z,2.15
2022-10-10T22:52:06.010Z,1.88
2022-10-10T22:57:31.158Z,2.33
2022-10-10T23:02:58.114Z,1.85
2022-10-10T23:08:22.530Z,2.03
2022-10-10T23:13:48.088Z,2.08
2022-10-10T23:19:14.445Z,1.92
2022-10-10T23:24:39.079Z,1.70
2022-10-10T23:30:05.421Z,1.63
2022-10-10T23:35:29.626Z,2.20
2022-10-10T23:40:53.841Z,2.67
2022-10-10T23:46:19.651Z,2.03
2022-10-10T23:51:43.783Z,1.88
2022-10-10T23:57:08.512Z,1.05
